createdAt,value
2022-09-05T00:02:04.778Z,97951.63
2022-09-05T00:04:49.579Z,97954.19
2022-09-05T00:07:35.993Z,97953.31
2022-09-05T00:10:18.949Z,97943.91
2022-09-05T00:12:47.291Z,97908.25
2022-09-05T00:15:33.565Z,97942.16
2022-09-05T00:20:06.436Z,97936.16
2022-09-05T00:24:25.894Z,97937.88
2022-09-05T00:24:45.726Z,97927.47
2022-09-05T00:27:32.125Z,97927.50
2022-09-05T00:31:51.231Z,97934.44
2022-09-05T00:33:25.196Z,97931.88
2022-09-05T00:36:23.730Z,97939.56
2022-09-05T00:39:01.379Z,97939.56
2022-09-05T00:41:27.956Z,97942.16
2022-09-05T00:43:57.176Z,97932.66
2022-09-05T00:46:31.903Z,97932.66
2022-09-05T00:49:32.109Z,97930.84
2022-09-05T00:52:14.181Z,97945.59
2022-09-05T00:54:41.720Z,97946.47
2022-09-05T00:57:18.128Z,97948.16
2022-09-05T01:00:02.147Z,97950.72
2022-09-05T01:02:32.142Z,97949.84
2022-09-05T01:05:11.128Z,97955.00
2022-09-05T01:07:46.565Z,97978.13
2022-09-05T01:10:39.176Z,97964.44
2022-09-05T01:13:35.912Z,97960.13
2022-09-05T01:16:11.252Z,97952.44
2022-09-05T01:19:01.847Z,97963.59
2022-09-05T01:21:37.796Z,97963.59
2022-09-05T01:24:27.900Z,97950.59
2022-09-05T01:26:54.569Z,97960.13
2022-09-05T01:29:45.790Z,97971.28
2022-09-05T01:32:30.744Z,97967.84
2022-09-05T01:35:17.895Z,97967.00
2022-09-05T01:37:47.935Z,97964.44
2022-09-05T01:40:28.347Z,97966.16
2022-09-05T01:43:32.370Z,97964.44
2022-09-05T01:45:58.803Z,97960.13
2022-09-05T01:48:49.176Z,97963.59
2022-09-05T01:51:35.056Z,97964.44
2022-09-05T01:54:26.378Z,97957.56
2022-09-05T01:57:28.854Z,97962.63
2022-09-05T02:00:12.362Z,97961.00
2022-09-05T02:02:50.102Z,97968.69
2022-09-05T02:05:49.149Z,97967.81
2022-09-05T02:08:16.081Z,97970.38
2022-09-05T02:11:01.605Z,97973.81
2022-09-05T02:13:46.279Z,97971.25
2022-09-05T02:16:21.546Z,97968.69
2022-09-05T02:18:54.417Z,97966.13
2022-09-05T02:21:33.461Z,97960.97
2022-09-05T02:24:16.056Z,97963.56
2022-09-05T02:27:00.124Z,97971.25
2022-09-05T02:29:40.145Z,97941.94
2022-09-05T02:32:21.325Z,97954.16
2022-09-05T02:34:56.925Z,97954.06
2022-09-05T02:37:49.673Z,97966.13
2022-09-05T02:45:14.818Z,97967.84
2022-09-05T02:45:21.363Z,97964.44
2022-09-05T02:46:35.711Z,97967.00
2022-09-05T02:49:23.399Z,97969.56
2022-09-05T02:57:28.965Z,97966.13
2022-09-05T02:57:42.126Z,97950.47
2022-09-05T02:58:07.555Z,97958.41
2022-09-05T03:00:36.113Z,97952.38
2022-09-05T03:03:28.842Z,97955.84
2022-09-05T03:06:09.413Z,97961.81
2022-09-05T03:08:48.521Z,97968.66
2022-09-05T03:11:36.925Z,97972.94
2022-09-05T03:14:35.479Z,97974.69
2022-09-05T03:17:11.240Z,97973.81
2022-09-05T03:19:56.636Z,97972.94
2022-09-05T03:22:54.723Z,97972.94
2022-09-05T03:25:30.293Z,97972.09
2022-09-05T03:28:22.986Z,97966.97
2022-09-05T03:31:27.458Z,97968.69
2022-09-05T03:34:24.644Z,97973.81
2022-09-05T03:36:54.108Z,97972.88
2022-09-05T03:39:45.177Z,97974.69
2022-09-05T03:42:31.178Z,97980.63
2022-09-05T03:45:40.993Z,97980.63
2022-09-05T03:48:27.784Z,97970.34
2022-09-05T03:57:13.709Z,97976.38
2022-09-05T03:57:20.204Z,97996.03
2022-09-05T03:57:38.581Z,97971.22
2022-09-05T04:00:22.588Z,97972.91
2022-09-05T04:08:09.386Z,97972.06
2022-09-05T04:08:23.602Z,97972.91
2022-09-05T04:08:49.361Z,97966.09
2022-09-05T04:11:25.114Z,97963.50
2022-09-05T04:13:54.577Z,97971.22
2022-09-05T04:16:51.328Z,97945.25
2022-09-05T04:19:32.983Z,97969.53
2022-09-05T04:22:21.971Z,97968.66
2022-09-05T04:25:02.315Z,97960.94
2022-09-05T04:28:10.724Z,97959.25
2022-09-05T04:30:45.909Z,97957.50
2022-09-05T04:33:36.327Z,97960.94
2022-09-05T04:36:33.948Z,97966.09
2022-09-05T04:39:18.686Z,97972.91
2022-09-05T04:42:04.469Z,97913.78
2022-09-05T04:45:11.451Z,97976.38
2022-09-05T04:47:47.876Z,97984.94
2022-09-05T04:50:20.294Z,97984.06
2022-09-05T04:53:04.947Z,97984.94
2022-09-05T04:55:33.383Z,97967.53
2022-09-05T04:59:18.749Z,97992.66
2022-09-05T05:05:59.954Z,97956.09
2022-09-05T05:06:10.662Z,98000.38
2022-09-05T05:07:20.795Z,97995.22
2022-09-05T05:10:05.888Z,98000.41
2022-09-05T05:17:57.708Z,98008.94
2022-09-05T05:18:12.789Z,97997.81
2022-09-05T05:19:18.747Z,98007.25
2022-09-05T05:21:50.176Z,98013.22
2022-09-05T05:24:28.067Z,98009.81
2022-09-05T05:27:07.530Z,98014.06
2022-09-05T05:29:43.457Z,98025.19
2022-09-05T05:32:25.563Z,98015.59
2022-09-05T05:35:12.932Z,98035.50
2022-09-05T05:38:13.129Z,98032.06
2022-09-05T05:40:50.785Z,98032.94
2022-09-05T05:43:42.910Z,98015.59
2022-09-05T05:46:15.442Z,98026.13
2022-09-05T05:48:44.176Z,97981.69
2022-09-05T05:51:35.373Z,98020.97
2022-09-05T05:54:36.227Z,98023.53
2022-09-05T05:57:37.916Z,98029.53
2022-09-05T06:00:06.055Z,98036.38
2022-09-05T06:03:09.859Z,98029.53
2022-09-05T06:05:56.650Z,98030.41
2022-09-05T06:12:09.685Z,98030.38
2022-09-05T06:14:55.253Z,98025.22
2022-09-05T06:15:08.947Z,98025.22
2022-09-05T06:18:14.940Z,98032.03
2022-09-05T06:22:08.552Z,98033.78
2022-09-05T06:24:21.341Z,98034.63
2022-09-05T06:27:06.484Z,98038.94
2022-09-05T06:29:58.529Z,98038.94
2022-09-05T06:33:02.345Z,98036.34
2022-09-05T06:36:07.245Z,98038.03
2022-09-05T06:38:45.906Z,98044.03
2022-09-05T06:41:37.456Z,98033.56
2022-09-05T06:44:13.469Z,98042.31
2022-09-05T06:47:07.742Z,98052.59
2022-09-05T06:49:56.347Z,98050.00
2022-09-05T06:52:41.273Z,98047.44
2022-09-05T06:55:39.788Z,98046.63
2022-09-05T06:58:24.268Z,98043.19
2022-09-05T07:00:51.827Z,98045.72
2022-09-05T07:03:40.129Z,98051.75
2022-09-05T07:06:20.556Z,98048.28
2022-09-05T07:09:08.520Z,98049.97
2022-09-05T07:12:19.984Z,98050.81
2022-09-05T07:15:08.733Z,98053.44
2022-09-05T07:18:08.961Z,98051.75
2022-09-05T07:21:16.946Z,98056.88
2022-09-05T07:24:09.785Z,98014.22
2022-09-05T07:26:53.644Z,98042.06
2022-09-05T07:29:52.401Z,98056.88
2022-09-05T07:32:27.604Z,98070.56
2022-09-05T07:34:54.158Z,98056.69
2022-09-05T07:37:25.879Z,98028.06
2022-09-05T07:39:58.226Z,98059.44
2022-09-05T07:42:34.597Z,98057.72
2022-09-05T07:45:06.375Z,98041.25
2022-09-05T07:47:34.721Z,98054.34
2022-09-05T07:52:00.765Z,98063.75
2022-09-05T07:56:51.385Z,98062.06
2022-09-05T07:56:58.769Z,98061.19
2022-09-05T07:58:41.751Z,98059.47
2022-09-05T08:01:12.655Z,98062.91
2022-09-05T08:03:39.361Z,98050.69
2022-09-05T08:06:08.596Z,98068.91
2022-09-05T08:09:21.702Z,98066.34
2022-09-05T08:11:52.397Z,98070.66
2022-09-05T08:14:44.918Z,98068.09
2022-09-05T08:17:19.875Z,98021.16
2022-09-05T08:20:08.538Z,98062.94
2022-09-05T08:22:43.092Z,98062.94
2022-09-05T08:25:22.021Z,98061.25
2022-09-05T08:27:50.233Z,98062.13
2022-09-05T08:30:26.582Z,98059.59
2022-09-05T08:33:10.476Z,98051.88
2022-09-05T08:35:53.087Z,98054.41
2022-09-05T08:38:24.550Z,98051.88
2022-09-05T08:41:49.921Z,98049.31
2022-09-05T08:46:36.845Z,98051.88
2022-09-05T08:47:45.695Z,98045.91
2022-09-05T08:50:12.658Z,98049.34
2022-09-05T08:53:46.695Z,98044.22
2022-09-05T08:56:37.100Z,98046.88
2022-09-05T08:59:31.535Z,97996.50
2022-09-05T09:02:47.151Z,98033.13
2022-09-05T09:06:12.601Z,98029.72
2022-09-05T09:08:37.665Z,98034.81
2022-09-05T09:11:13.001Z,98031.44
2022-09-05T09:13:52.891Z,98026.28
2022-09-05T09:16:35.700Z,98006.31
2022-09-05T09:19:12.341Z,97980.25
2022-09-05T09:21:47.459Z,98018.63
2022-09-05T09:24:29.573Z,98026.34
2022-09-05T09:27:01.751Z,97985.47
2022-09-05T09:29:28.315Z,98003.78
2022-09-05T09:32:17.212Z,98022.91
2022-09-05T09:35:17.720Z,98021.22
2022-09-05T09:38:24.400Z,98022.09
2022-09-05T09:41:12.745Z,98018.66
2022-09-05T09:44:33.753Z,98018.66
2022-09-05T09:47:00.355Z,98012.56
2022-09-05T09:50:02.420Z,98016.06
2022-09-05T09:52:57.776Z,98018.63
2022-09-05T09:55:40.847Z,98013.47
2022-09-05T09:58:29.793Z,98005.78
2022-09-05T10:01:36.078Z,98008.34
2022-09-05T10:10:33.592Z,98006.59
2022-09-05T10:10:44.345Z,98007.44
2022-09-05T10:10:52.194Z,98002.31
2022-09-05T10:13:25.717Z,97998.03
2022-09-05T10:16:31.219Z,98004.84
2022-09-05T10:19:16.334Z,97995.44
2022-09-05T10:25:31.633Z,97986.84
2022-09-05T10:28:07.818Z,97988.56
2022-09-05T10:31:09.619Z,97984.22
2022-09-05T10:35:11.472Z,97978.16
2022-09-05T10:37:02.512Z,97976.44
2022-09-05T10:39:39.498Z,97964.28
2022-09-05T10:42:48.302Z,97973.06
2022-09-05T10:46:01.109Z,97970.56
2022-09-05T10:48:37.529Z,97940.16
2022-09-05T10:51:27.154Z,97968.81
2022-09-05T10:54:01.267Z,97962.88
2022-09-05T10:56:34.777Z,97959.47
2022-09-05T11:02:16.195Z,97961.16
2022-09-05T11:02:27.530Z,97967.22
2022-09-05T11:05:15.423Z,97950.81
2022-09-05T11:08:06.536Z,97956.06
2022-09-05T11:10:45.132Z,97956.03
2022-09-05T11:13:16.373Z,97944.75
2022-09-05T11:16:12.747Z,97948.31
2022-09-05T11:18:57.300Z,97936.09
2022-09-05T11:21:39.232Z,97950.88
2022-09-05T11:24:13.061Z,97939.72
2022-09-05T11:26:59.595Z,97932.63
2022-09-05T11:29:52.151Z,97944.03
2022-09-05T11:34:44.186Z,97940.63
2022-09-05T11:39:45.624Z,97938.06
2022-09-05T11:39:56.072Z,97932.06
2022-09-05T11:42:09.092Z,97941.50
2022-09-05T11:44:44.925Z,97927.81
2022-09-05T11:47:40.984Z,97926.09
2022-09-05T11:50:37.621Z,97921.78
2022-09-05T11:53:37.478Z,97922.69
2022-09-05T11:56:19.245Z,97925.25
2022-09-05T11:58:52.049Z,97922.69
2022-09-05T12:01:44.109Z,97920.97
2022-09-05T12:04:33.938Z,97920.97
2022-09-05T12:07:26.886Z,97818.50
2022-09-05T12:10:45.974Z,97920.97
2022-09-05T12:13:47.112Z,97918.41
2022-09-05T12:16:43.459Z,97903.00
2022-09-05T12:19:20.137Z,97900.41
2022-09-05T12:22:24.268Z,97901.28
2022-09-05T12:25:25.733Z,97893.56
2022-09-05T12:28:28.547Z,97893.56
2022-09-05T12:31:11.999Z,97899.53
2022-09-05T12:36:03.703Z,97902.16
2022-09-05T12:40:16.633Z,97891.88
2022-09-05T12:40:55.541Z,97900.41
2022-09-05T12:42:39.984Z,97892.72
2022-09-05T12:45:43.688Z,97886.69
2022-09-05T12:48:12.444Z,97888.38
2022-09-05T12:51:01.149Z,97878.97
2022-09-05T12:53:35.195Z,97874.66
2022-09-05T12:56:37.330Z,97886.69
2022-09-05T13:03:02.011Z,97865.88
2022-09-05T13:03:12.213Z,97864.19
2022-09-05T13:05:02.734Z,97878.97
2022-09-05T13:07:37.396Z,97871.22
2022-09-05T13:13:44.599Z,97867.78
2022-09-05T13:14:58.745Z,97872.97
2022-09-05T13:16:03.458Z,97867.00
2022-09-05T13:18:37.399Z,97863.56
2022-09-05T13:21:11.807Z,97862.69
2022-09-05T13:24:05.069Z,97854.13
2022-09-05T13:26:39.974Z,97854.91
2022-09-05T13:29:14.091Z,97858.41
2022-09-05T13:37:55.466Z,97861.00
2022-09-05T13:38:02.866Z,97849.00
2022-09-05T13:38:30.505Z,97834.13
2022-09-05T13:40:48.582Z,97836.81
2022-09-05T13:43:31.796Z,97814.25
2022-09-05T13:46:20.212Z,97845.56
2022-09-05T13:51:51.142Z,97831.84
2022-09-05T13:55:00.515Z,97823.28
2022-09-05T13:57:33.268Z,97831.81
2022-09-05T14:00:08.715Z,97823.28
2022-09-05T14:03:37.440Z,97819.81
2022-09-05T14:06:49.348Z,97822.41
2022-09-05T14:09:36.642Z,97816.38
2022-09-05T14:12:23.405Z,97826.66
2022-09-05T14:15:09.422Z,97811.25
2022-09-05T14:18:20.453Z,97711.41
2022-09-05T14:21:15.982Z,97806.09
2022-09-05T14:23:56.344Z,97801.75
2022-09-05T14:26:34.140Z,97806.09
2022-09-05T14:29:25.292Z,97774.06
2022-09-05T14:37:40.949Z,97780.13
2022-09-05T14:37:44.659Z,97801.84
2022-09-05T14:39:20.325Z,97791.56
2022-09-05T14:42:15.413Z,97796.69
2022-09-05T14:45:09.378Z,97794.13
2022-09-05T14:47:54.617Z,97792.44
2022-09-05T14:50:46.163Z,97782.97
2022-09-05T14:56:47.768Z,97782.97
2022-09-05T15:02:49.443Z,97788.97
2022-09-05T15:02:55.255Z,97767.38
2022-09-05T15:05:15.129Z,97776.97
2022-09-05T15:07:45.999Z,97760.53
2022-09-05T15:12:17.767Z,97776.13
2022-09-05T15:13:11.568Z,97769.28
2022-09-05T15:15:39.296Z,97770.09
2022-09-05T15:18:17.842Z,97762.41
2022-09-05T15:20:45.863Z,97763.25
2022-09-05T15:23:33.823Z,97768.44
2022-09-05T15:26:15.905Z,97758.13
2022-09-05T15:28:44.155Z,97751.13
2022-09-05T15:31:22.620Z,97759.00
2022-09-05T15:33:50.607Z,97758.13
2022-09-05T15:36:38.101Z,97753.72
2022-09-05T15:39:27.940Z,97761.59
2022-09-05T15:41:56.816Z,97746.88
2022-09-05T15:44:25.700Z,97741.72
2022-09-05T15:46:57.203Z,97748.72
2022-09-05T15:49:28.092Z,97746.13
2022-09-05T15:51:56.989Z,97744.41
2022-09-05T15:54:38.454Z,97733.88
2022-09-05T15:57:08.894Z,97735.75
2022-09-05T15:59:48.033Z,97733.13
2022-09-05T16:02:23.286Z,97732.28
2022-09-05T16:10:34.229Z,97744.41
2022-09-05T16:10:39.982Z,97737.50
2022-09-05T16:11:05.361Z,97722.81
2022-09-05T16:13:52.376Z,97734.97
2022-09-05T16:22:39.738Z,97736.66
2022-09-05T16:23:16.851Z,97734.09
2022-09-05T16:23:25.663Z,97733.28
2022-09-05T16:24:59.813Z,97716.81
2022-09-05T16:27:46.685Z,97721.25
2022-09-05T16:30:20.860Z,97720.44
2022-09-05T16:32:51.277Z,97709.13
2022-09-05T16:35:18.379Z,97717.00
2022-09-05T16:37:54.869Z,97722.13
2022-09-05T16:40:26.233Z,97721.28
2022-09-05T16:42:59.889Z,97741.84
2022-09-05T16:45:51.125Z,97713.56
2022-09-05T16:48:33.381Z,97718.72
2022-09-05T16:51:15.954Z,97708.44
2022-09-05T16:53:58.298Z,97711.88
2022-09-05T16:56:48.359Z,97721.31
2022-09-05T16:59:22.517Z,97710.88
2022-09-05T17:02:05.801Z,97718.75
2022-09-05T17:05:03.998Z,97701.34
2022-09-05T17:08:10.247Z,97728.22
2022-09-05T17:10:57.484Z,97712.63
2022-09-05T17:13:43.581Z,97706.59
2022-09-05T17:16:20.746Z,97713.41
2022-09-05T17:18:47.456Z,97723.06
2022-09-05T17:21:45.513Z,97712.75
2022-09-05T17:29:23.618Z,97714.44
2022-09-05T17:29:26.100Z,97716.19
2022-09-05T17:32:58.448Z,97699.75
2022-09-05T17:35:54.710Z,97723.09
2022-09-05T17:38:33.421Z,97712.81
2022-09-05T17:41:34.274Z,97700.59
2022-09-05T17:44:17.978Z,97713.66
2022-09-05T17:47:10.238Z,97708.47
2022-09-05T17:49:45.046Z,97714.53
2022-09-05T17:52:16.613Z,97719.69
2022-09-05T17:54:49.885Z,97707.59
2022-09-05T17:57:29.215Z,97717.13
2022-09-05T18:00:11.979Z,97717.13
2022-09-05T18:02:53.553Z,97721.41
2022-09-05T18:05:54.135Z,97722.28
2022-09-05T18:08:46.481Z,97714.53
2022-09-05T18:11:25.664Z,97716.25
2022-09-05T18:14:10.777Z,97719.72
2022-09-05T18:20:18.608Z,97730.00
2022-09-05T18:23:39.322Z,97727.44
2022-09-05T18:26:21.603Z,97737.69
2022-09-05T18:28:53.502Z,97730.84
2022-09-05T18:31:41.646Z,97733.44
2022-09-05T18:34:15.352Z,97730.88
2022-09-05T18:36:48.724Z,97731.59
2022-09-05T18:39:28.015Z,97739.44
2022-09-05T18:42:26.094Z,97742.88
2022-09-05T18:45:28.356Z,97743.72
2022-09-05T18:48:01.624Z,97738.59
2022-09-05T18:50:34.215Z,97741.16
2022-09-05T18:53:10.756Z,97721.16
2022-09-05T18:56:14.148Z,97745.41
2022-09-05T18:59:09.881Z,97741.16
2022-09-05T19:01:58.728Z,97742.84
2022-09-05T19:04:49.533Z,97746.28
2022-09-05T19:07:25.217Z,97735.88
2022-09-05T19:10:13.229Z,97740.25
2022-09-05T19:13:03.457Z,97743.72
2022-09-05T19:15:52.818Z,97746.28
2022-09-05T19:19:16.361Z,97738.53
2022-09-05T19:21:45.964Z,97739.44
2022-09-05T19:24:13.578Z,97750.56
2022-09-05T19:26:40.153Z,97721.19
2022-09-05T19:36:47.059Z,97742.00
2022-09-05T19:36:58.158Z,97747.13
2022-09-05T19:37:10.873Z,97748.91
2022-09-05T19:37:49.462Z,97747.16
2022-09-05T19:47:27.072Z,97624.94
2022-09-05T19:47:38.912Z,97742.88
2022-09-05T19:47:41.271Z,97742.03
2022-09-05T19:48:40.823Z,97747.13
2022-09-05T19:51:17.438Z,97746.31
2022-09-05T19:54:04.462Z,97743.72
2022-09-05T19:56:43.789Z,97744.56
2022-09-05T19:59:22.429Z,97736.00
2022-09-05T20:01:50.484Z,97735.94
2022-09-05T20:04:18.859Z,97726.44
2022-09-05T20:06:46.475Z,97744.56
2022-09-05T20:09:20.025Z,97715.13
2022-09-05T20:11:49.404Z,97728.16
2022-09-05T20:14:17.950Z,97735.13
2022-09-05T20:16:44.629Z,97723.03
2022-09-05T20:19:29.201Z,97733.38
2022-09-05T20:21:58.379Z,97717.75
2022-09-05T20:24:24.963Z,97623.28
2022-09-05T20:26:51.546Z,97728.25
2022-09-05T20:29:44.849Z,97721.28
2022-09-05T20:32:27.818Z,97723.91
2022-09-05T20:38:36.783Z,97725.69
2022-09-05T20:43:24.165Z,97727.38
2022-09-05T20:43:30.177Z,97717.06
2022-09-05T20:44:08.678Z,97723.94
2022-09-05T20:50:26.083Z,97725.66
2022-09-05T20:54:13.741Z,97727.38
2022-09-05T20:54:21.730Z,97726.47
2022-09-05T20:55:40.144Z,97717.03
2022-09-05T20:58:24.742Z,97725.63
2022-09-05T21:01:15.659Z,97719.56
2022-09-05T21:04:02.706Z,97728.22
2022-09-05T21:06:33.493Z,97732.50
2022-09-05T21:09:25.318Z,97724.75
2022-09-05T21:11:56.267Z,97730.78
2022-09-05T21:14:24.099Z,97729.91
2022-09-05T21:17:08.239Z,97728.03
2022-09-05T21:19:43.658Z,97731.59
2022-09-05T21:22:43.499Z,97714.22
2022-09-05T21:25:21.637Z,97719.41
2022-09-05T21:28:07.309Z,97740.19
2022-09-05T21:30:35.634Z,97729.00
2022-09-05T21:33:18.264Z,97739.31
2022-09-05T21:35:46.380Z,97743.59
2022-09-05T21:38:16.730Z,97727.09
2022-09-05T21:41:02.743Z,97744.44
2022-09-05T21:47:35.487Z,97727.31
2022-09-05T21:47:43.873Z,97732.44
2022-09-05T21:49:03.384Z,97730.75
2022-09-05T21:51:30.436Z,97737.59
2022-09-05T21:57:01.765Z,97672.59
2022-09-05T21:59:26.137Z,97702.84
2022-09-05T21:59:47.298Z,97734.75
2022-09-05T22:02:16.528Z,97740.13
2022-09-05T22:04:43.435Z,97738.44
2022-09-05T22:07:26.353Z,97734.09
2022-09-05T22:09:58.625Z,97732.41
2022-09-05T22:12:33.604Z,97737.59
2022-09-05T22:15:26.630Z,97734.13
2022-09-05T22:17:47.295Z,97712.50
2022-09-05T22:20:14.704Z,97710.75
2022-09-05T22:22:41.276Z,97723.75
2022-09-05T22:25:13.625Z,97731.53
2022-09-05T22:27:44.235Z,97706.50
2022-09-05T22:30:13.791Z,97728.09
2022-09-05T22:32:40.393Z,97724.69
2022-09-05T22:35:27.641Z,97719.56
2022-09-05T22:38:00.280Z,97718.69
2022-09-05T22:40:28.741Z,97710.09
2022-09-05T22:42:59.307Z,97715.22
2022-09-05T22:45:26.110Z,97713.53
2022-09-05T22:47:52.928Z,97712.66
2022-09-05T22:50:19.604Z,97713.53
2022-09-05T22:52:46.235Z,97709.28
2022-09-05T22:55:12.790Z,97712.66
2022-09-05T22:57:39.538Z,97716.94
2022-09-05T23:00:07.283Z,97722.94
2022-09-05T23:02:35.105Z,97721.25
2022-09-05T23:05:02.685Z,97721.25
2022-09-05T23:07:29.643Z,97716.13
2022-09-05T23:09:56.167Z,97717.81
2022-09-05T23:12:22.722Z,97721.19
2022-09-05T23:14:49.244Z,97712.66
2022-09-05T23:17:16.060Z,97709.22
2022-09-05T23:19:42.639Z,97711.78
2022-09-05T23:22:09.172Z,97710.88
2022-09-05T23:24:36.144Z,97710.09
2022-09-05T23:27:02.716Z,97706.66
2022-09-05T23:29:29.323Z,97708.41
2022-09-05T23:31:56.861Z,97703.19
2022-09-05T23:34:23.668Z,97708.41
2022-09-05T23:36:50.231Z,97696.38
2022-09-05T23:39:16.831Z,97690.31
2022-09-05T23:41:43.364Z,97694.66
2022-09-05T23:44:09.979Z,97690.34
2022-09-05T23:46:37.876Z,97681.81
2022-09-05T23:49:04.488Z,97689.53
2022-09-05T23:51:31.027Z,97683.50
2022-09-05T23:53:57.651Z,97685.22
2022-09-05T23:56:24.208Z,97682.63
2022-09-05T23:58:50.853Z,97684.38
